Terminal Aerodrome Forecast
Issued by NWS Sioux Falls, SD

Home | Current Version | Previous Version | Graphics & Text | Print | Product List | Glossary Off
Versions: 1 2 3 4 5 6 7 8 9 10 11 12 13 14 15 16 17 18 19 20 21 22 23

000
FTUS43 KFSD 291954 AAA
TAFFSD
TAF AMD
KFSD 291954Z 2920/3018 08010KT P6SM SCT015 BKN110
     FM300400 09012KT P6SM BKN015
     FM301000 10012G16KT P6SM OVC010
     FM301600 12014G20KT 5SM SHRA OVC010=

USA.gov is the U.S. government's official web portal to all federal, state and local government web resources and services.